createdAt,value
2022-12-24T00:01:32.269Z,2.60
2022-12-24T00:04:00.211Z,3.15
2022-12-24T00:06:28.075Z,4.05
2022-12-24T00:08:55.949Z,2.85
2022-12-24T00:11:23.827Z,2.97
2022-12-24T00:13:51.796Z,3.10
2022-12-24T00:16:19.821Z,2.83
2022-12-24T00:18:47.917Z,3.58
2022-12-24T00:21:16.815Z,3.22
2022-12-24T00:23:45.205Z,2.38
2022-12-24T00:26:13.801Z,3.70
2022-12-24T00:28:41.856Z,2.75
2022-12-24T00:31:18.009Z,2.95
2022-12-24T00:33:48.851Z,3.30
2022-12-24T00:36:17.548Z,2.38
2022-12-24T00:38:45.767Z,2.50
2022-12-24T00:41:29.339Z,3.67
2022-12-24T00:44:06.859Z,3.50
2022-12-24T00:46:35.818Z,3.60
2022-12-24T00:49:05.151Z,4.22
2022-12-24T00:51:33.827Z,2.97
2022-12-24T00:54:07.425Z,3.38
2022-12-24T00:56:35.720Z,3.15
2022-12-24T00:59:03.609Z,3.95
2022-12-24T01:01:31.657Z,3.35
2022-12-24T01:04:18.170Z,3.63
2022-12-24T01:06:46.111Z,4.45
2022-12-24T01:09:14.188Z,2.70
2022-12-24T01:11:42.143Z,3.47
2022-12-24T01:14:20.759Z,3.45
2022-12-24T01:16:48.832Z,3.97
2022-12-24T01:19:16.707Z,3.08
2022-12-24T01:21:48.827Z,3.88
2022-12-24T01:24:17.233Z,3.45
2022-12-24T01:26:45.600Z,3.42
2022-12-24T01:29:13.523Z,3.10
2022-12-24T01:31:41.677Z,3.15
2022-12-24T01:34:12.574Z,3.80
2022-12-24T01:36:41.940Z,2.92
2022-12-24T01:39:09.771Z,3.55
2022-12-24T01:41:56.143Z,3.28
2022-12-24T01:44:36.885Z,3.38
2022-12-24T01:47:15.477Z,3.47
2022-12-24T01:49:48.626Z,3.75
2022-12-24T01:52:22.898Z,3.70
2022-12-24T01:55:04.545Z,3.78
2022-12-24T01:57:38.071Z,4.10
2022-12-24T02:00:13.122Z,3.17
2022-12-24T02:02:43.518Z,4.18
2022-12-24T02:05:38.863Z,3.53
2022-12-24T02:08:07.981Z,3.20
2022-12-24T02:10:35.938Z,3.47
2022-12-24T02:13:04.503Z,3.38
2022-12-24T02:15:44.313Z,3.70
2022-12-24T02:19:06.180Z,3.13
2022-12-24T02:21:43.295Z,3.47
2022-12-24T02:24:21.783Z,3.70
2022-12-24T02:27:19.251Z,3.83
2022-12-24T02:30:03.563Z,3.92
2022-12-24T02:32:34.368Z,3.67
2022-12-24T02:35:27.257Z,3.53
2022-12-24T02:38:05.325Z,3.45
2022-12-24T02:40:41.074Z,3.83
2022-12-24T02:43:16.860Z,4.28
2022-12-24T02:45:49.558Z,5.00
2022-12-24T02:48:23.540Z,4.30
2022-12-24T02:51:22.163Z,4.47
2022-12-24T02:53:50.112Z,3.15
2022-12-24T02:56:48.120Z,2.83
2022-12-24T02:59:18.722Z,3.83
2022-12-24T03:02:19.952Z,4.35
2022-12-24T03:05:08.870Z,3.50
2022-12-24T03:07:48.486Z,3.47
2022-12-24T03:10:31.315Z,4.25
2022-12-24T03:13:22.773Z,4.00
2022-12-24T03:15:51.985Z,3.75
2022-12-24T03:18:23.503Z,4.20
2022-12-24T03:21:13.781Z,3.95
2022-12-24T03:23:41.822Z,4.35
2022-12-24T03:26:12.235Z,4.15
2022-12-24T03:28:41.584Z,3.30
2022-12-24T03:31:10.962Z,4.32
2022-12-24T03:33:39.726Z,5.03
2022-12-24T03:36:08.538Z,4.60
2022-12-24T03:38:36.404Z,4.35
2022-12-24T03:41:04.552Z,3.97
2022-12-24T03:43:32.603Z,4.00
2022-12-24T03:46:05.463Z,3.65
2022-12-24T03:48:35.308Z,3.38
2022-12-24T03:51:03.978Z,4.47
2022-12-24T03:53:32.287Z,3.35
2022-12-24T03:56:00.156Z,3.08
2022-12-24T03:58:27.896Z,2.97
2022-12-24T04:00:55.817Z,4.03
2022-12-24T04:03:23.966Z,3.60
2022-12-24T04:06:06.143Z,3.85
2022-12-24T04:08:35.060Z,3.67
2022-12-24T04:11:09.689Z,3.55
2022-12-24T04:13:38.438Z,3.25
2022-12-24T04:16:09.534Z,4.32
2022-12-24T04:18:38.496Z,4.55
2022-12-24T04:21:07.861Z,4.03
2022-12-24T04:23:37.366Z,4.75
2022-12-24T04:26:07.730Z,4.45
2022-12-24T04:28:36.487Z,4.95
2022-12-24T04:31:07.422Z,4.97
2022-12-24T04:33:36.184Z,5.05
2022-12-24T04:36:06.619Z,3.63
2022-12-24T04:38:35.393Z,5.05
2022-12-24T04:41:05.752Z,3.95
2022-12-24T04:43:34.336Z,5.63
2022-12-24T04:46:10.557Z,6.28
2022-12-24T04:48:38.781Z,5.63
2022-12-24T04:51:07.492Z,6.10
2022-12-24T04:53:35.829Z,7.13
2022-12-24T04:56:07.064Z,5.05
2022-12-24T04:58:35.391Z,6.75
2022-12-24T05:01:07.830Z,6.85
2022-12-24T05:03:35.884Z,4.80
2022-12-24T05:06:06.121Z,5.65
2022-12-24T05:08:34.402Z,6.85
2022-12-24T05:11:03.350Z,6.18
2022-12-24T05:13:40.440Z,5.75
2022-12-24T05:16:13.617Z,6.95
2022-12-24T05:18:41.615Z,5.60
2022-12-24T05:21:11.384Z,5.70
2022-12-24T05:23:57.857Z,8.35
2022-12-24T05:26:49.349Z,6.93
2022-12-24T05:29:17.602Z,7.07
2022-12-24T05:31:45.906Z,5.93
2022-12-24T05:34:15.184Z,6.03
2022-12-24T05:36:44.214Z,6.07
2022-12-24T05:39:19.062Z,5.10
2022-12-24T05:41:47.289Z,5.07
2022-12-24T05:44:16.194Z,5.63
2022-12-24T05:46:44.725Z,5.72
2022-12-24T05:49:12.833Z,6.63
2022-12-24T05:51:41.134Z,7.53
2022-12-24T05:54:09.028Z,5.68
2022-12-24T05:56:36.838Z,7.13
2022-12-24T05:59:04.946Z,7.45
2022-12-24T06:01:32.809Z,5.75
2022-12-24T06:04:00.883Z,5.60
2022-12-24T06:06:28.990Z,6.13
2022-12-24T06:08:57.178Z,5.95
2022-12-24T06:11:27.540Z,6.55
2022-12-24T06:13:55.980Z,6.35
2022-12-24T06:16:25.320Z,6.13
2022-12-24T06:18:53.544Z,6.93
2022-12-24T06:21:21.472Z,6.10
2022-12-24T06:23:49.250Z,6.95
2022-12-24T06:26:19.458Z,6.07
2022-12-24T06:28:48.316Z,6.32
2022-12-24T06:31:19.064Z,6.43
2022-12-24T06:33:47.332Z,5.43
2022-12-24T06:36:18.568Z,7.25
2022-12-24T06:38:47.616Z,6.07
2022-12-24T06:41:16.889Z,5.10
2022-12-24T06:43:50.366Z,5.43
2022-12-24T06:46:19.175Z,5.72
2022-12-24T06:48:47.873Z,4.35
2022-12-24T06:51:19.398Z,5.95
2022-12-24T06:53:48.366Z,6.70
2022-12-24T06:56:16.277Z,5.70
2022-12-24T06:58:44.347Z,5.38
2022-12-24T07:01:14.835Z,5.50
2022-12-24T07:03:43.532Z,5.20
2022-12-24T07:06:26.997Z,6.18
2022-12-24T07:08:55.166Z,5.18
2022-12-24T07:11:24.857Z,5.50
2022-12-24T07:13:52.698Z,6.75
2022-12-24T07:16:20.764Z,5.80
2022-12-24T07:18:48.844Z,6.05
2022-12-24T07:21:16.737Z,5.22
2022-12-24T07:23:44.570Z,5.60
2022-12-24T07:26:12.514Z,5.88
2022-12-24T07:28:40.489Z,6.97
2022-12-24T07:31:08.537Z,6.65
2022-12-24T07:33:36.369Z,6.28
2022-12-24T07:36:17.761Z,6.47
2022-12-24T07:38:45.628Z,6.72
2022-12-24T07:41:13.734Z,6.90
2022-12-24T07:43:42.165Z,6.05
2022-12-24T07:46:10.313Z,6.32
2022-12-24T07:48:38.467Z,7.00
2022-12-24T07:51:06.534Z,5.97
2022-12-24T07:53:34.579Z,6.28
2022-12-24T07:56:06.160Z,6.45
2022-12-24T07:58:36.882Z,6.38
2022-12-24T08:01:04.752Z,6.40
2022-12-24T08:03:32.719Z,5.40
2022-12-24T08:06:00.804Z,7.45
2022-12-24T08:08:28.804Z,5.57
2022-12-24T08:11:02.908Z,6.47
2022-12-24T08:13:31.252Z,5.45
2022-12-24T08:16:01.529Z,5.28
2022-12-24T08:18:29.492Z,6.00
2022-12-24T08:20:57.320Z,5.35
2022-12-24T08:23:25.546Z,6.00
2022-12-24T08:25:53.431Z,6.18
2022-12-24T08:28:21.624Z,6.20
2022-12-24T08:30:50.435Z,6.25
2022-12-24T08:33:18.906Z,4.78
2022-12-24T08:35:50.912Z,4.75
2022-12-24T08:38:18.792Z,5.75
2022-12-24T08:40:48.933Z,4.55
2022-12-24T08:43:20.628Z,4.90
2022-12-24T08:45:50.008Z,6.28
2022-12-24T08:48:18.658Z,4.93
2022-12-24T08:50:46.765Z,6.47
2022-12-24T08:53:14.873Z,4.88
2022-12-24T08:55:42.773Z,5.85
2022-12-24T08:58:10.761Z,5.15
2022-12-24T09:00:38.967Z,5.68
2022-12-24T09:03:07.022Z,5.90
2022-12-24T09:05:39.473Z,6.45
2022-12-24T09:08:07.364Z,5.38
2022-12-24T09:10:35.323Z,5.70
2022-12-24T09:13:03.193Z,5.90
2022-12-24T09:15:31.169Z,4.57
2022-12-24T09:17:59.121Z,5.28
2022-12-24T09:20:28.019Z,5.95
2022-12-24T09:22:56.165Z,4.90
2022-12-24T09:25:24.369Z,5.60
2022-12-24T09:27:52.951Z,5.22
2022-12-24T09:30:21.214Z,6.07
2022-12-24T09:32:50.881Z,4.97
2022-12-24T09:35:18.834Z,5.95
2022-12-24T09:37:46.680Z,5.03
2022-12-24T09:40:29.296Z,5.22
2022-12-24T09:42:57.268Z,4.70
2022-12-24T09:45:36.782Z,5.10
2022-12-24T09:48:17.136Z,4.45
2022-12-24T09:50:56.646Z,5.20
2022-12-24T09:53:27.740Z,4.40
2022-12-24T09:55:59.196Z,5.60
2022-12-24T09:58:40.645Z,5.85
2022-12-24T10:01:15.869Z,5.25
2022-12-24T10:03:44.839Z,4.95
2022-12-24T10:06:29.086Z,5.00
2022-12-24T10:09:16.351Z,5.25
2022-12-24T10:12:17.876Z,5.65
2022-12-24T10:15:23.049Z,4.68
2022-12-24T10:18:18.768Z,4.75
2022-12-24T10:23:55.225Z,4.68
2022-12-24T10:26:30.447Z,4.75
2022-12-24T10:29:12.645Z,6.13
2022-12-24T10:32:09.393Z,4.85
2022-12-24T10:35:19.786Z,5.20
2022-12-24T10:37:49.690Z,5.07
2022-12-24T10:40:30.667Z,5.03
2022-12-24T10:42:58.735Z,5.65
2022-12-24T10:45:35.633Z,5.57
2022-12-24T10:48:09.880Z,5.53
2022-12-24T10:50:51.831Z,5.53
2022-12-24T10:53:31.454Z,5.15
2022-12-24T10:56:05.979Z,4.78
2022-12-24T10:58:35.622Z,6.00
2022-12-24T11:01:04.289Z,4.43
2022-12-24T11:03:37.041Z,4.63
2022-12-24T11:06:21.071Z,4.63
2022-12-24T11:08:49.110Z,5.22
2022-12-24T11:11:20.580Z,5.10
2022-12-24T11:13:51.410Z,4.43
2022-12-24T11:16:30.649Z,5.20
2022-12-24T11:19:02.171Z,4.72
2022-12-24T11:21:35.064Z,3.22
2022-12-24T11:24:27.984Z,4.95
2022-12-24T11:27:17.862Z,4.32
2022-12-24T11:29:45.761Z,5.25
2022-12-24T11:32:20.291Z,4.38
2022-12-24T11:34:48.912Z,4.60
2022-12-24T11:37:23.787Z,5.45
2022-12-24T11:42:35.239Z,4.40
2022-12-24T11:45:08.659Z,4.38
2022-12-24T11:47:40.721Z,4.45
2022-12-24T11:50:23.502Z,4.03
2022-12-24T11:53:22.957Z,4.10
2022-12-24T11:55:57.710Z,4.88
2022-12-24T12:01:16.033Z,3.90
2022-12-24T12:03:51.584Z,5.45
2022-12-24T12:06:40.433Z,5.45
2022-12-24T12:09:17.563Z,4.85
2022-12-24T12:11:51.171Z,4.13
2022-12-24T12:14:38.396Z,5.60
2022-12-24T12:17:37.109Z,6.20
2022-12-24T12:20:16.799Z,5.05
2022-12-24T12:23:03.266Z,4.82
2022-12-24T12:25:51.382Z,3.70
2022-12-24T12:28:26.819Z,4.15
2022-12-24T12:31:13.813Z,3.33
2022-12-24T12:33:48.793Z,3.75
2022-12-24T12:36:21.724Z,4.35
2022-12-24T12:38:51.247Z,3.30
2022-12-24T12:41:25.253Z,3.67
2022-12-24T12:44:08.162Z,3.45
2022-12-24T12:46:51.351Z,3.83
2022-12-24T12:49:49.480Z,3.78
2022-12-24T12:52:37.002Z,3.88
2022-12-24T12:55:23.939Z,3.85
2022-12-24T12:57:58.230Z,3.63
2022-12-24T13:00:28.170Z,3.65
2022-12-24T13:03:28.774Z,4.32
2022-12-24T13:06:05.704Z,3.50
2022-12-24T13:08:39.709Z,6.13
2022-12-24T13:11:36.989Z,3.28
2022-12-24T13:14:22.252Z,3.20
2022-12-24T13:19:40.218Z,2.70
2022-12-24T13:22:17.681Z,3.00
2022-12-24T13:24:56.927Z,3.08
2022-12-24T13:27:28.242Z,3.33
2022-12-24T13:30:02.178Z,2.85
2022-12-24T13:32:37.239Z,3.35
2022-12-24T13:35:36.983Z,3.17
2022-12-24T13:38:27.680Z,2.97
2022-12-24T13:40:56.587Z,2.95
2022-12-24T13:43:25.006Z,2.53
2022-12-24T13:45:53.540Z,2.20
2022-12-24T13:48:33.740Z,2.67
2022-12-24T13:51:20.390Z,2.80
2022-12-24T13:53:49.949Z,3.05
2022-12-24T13:56:18.299Z,3.08
2022-12-24T13:58:55.673Z,2.75
2022-12-24T14:01:36.189Z,2.72
2022-12-24T14:04:09.363Z,3.05
2022-12-24T14:06:49.184Z,3.42
2022-12-24T14:09:25.123Z,2.67
2022-12-24T14:12:28.630Z,3.17
2022-12-24T14:14:56.655Z,9.82
2022-12-24T14:17:26.441Z,5.32
2022-12-24T14:19:56.361Z,3.08
2022-12-24T14:22:34.151Z,3.58
2022-12-24T14:25:06.919Z,3.28
2022-12-24T14:27:47.006Z,3.40
2022-12-24T14:30:26.684Z,3.50
2022-12-24T14:32:55.233Z,8.65
2022-12-24T14:35:39.484Z,3.95
2022-12-24T14:38:18.741Z,4.13
2022-12-24T14:41:25.988Z,4.25
2022-12-24T14:44:10.447Z,4.10
2022-12-24T14:46:48.378Z,4.38
2022-12-24T14:49:34.126Z,3.72
2022-12-24T14:52:38.027Z,4.13
2022-12-24T14:55:21.891Z,3.78
2022-12-24T14:57:50.060Z,4.55
2022-12-24T15:00:20.840Z,4.50
2022-12-24T15:02:53.671Z,4.65
2022-12-24T15:05:28.915Z,4.28
2022-12-24T15:08:08.714Z,3.78
2022-12-24T15:10:46.837Z,4.93
2022-12-24T15:13:20.874Z,4.65
2022-12-24T15:15:52.873Z,4.20
2022-12-24T15:18:29.696Z,5.55
2022-12-24T15:21:04.419Z,4.80
2022-12-24T15:23:38.855Z,4.72
2022-12-24T15:26:38.954Z,5.38
2022-12-24T15:29:26.395Z,4.72
2022-12-24T15:31:59.762Z,4.97
2022-12-24T15:34:40.911Z,5.20
2022-12-24T15:37:21.794Z,4.93
2022-12-24T15:39:58.700Z,4.80
2022-12-24T15:42:29.619Z,5.80
2022-12-24T15:45:12.409Z,6.15
2022-12-24T15:47:48.656Z,5.40
2022-12-24T15:50:31.193Z,5.28
2022-12-24T15:53:20.161Z,6.18
2022-12-24T15:56:11.962Z,5.93
2022-12-24T15:58:45.453Z,5.28
2022-12-24T16:01:16.230Z,5.80
2022-12-24T16:03:53.287Z,6.65
2022-12-24T16:06:22.767Z,6.28
2022-12-24T16:08:51.912Z,5.93
2022-12-24T16:11:23.908Z,6.07
2022-12-24T16:13:59.534Z,6.32
2022-12-24T16:16:50.663Z,6.20
2022-12-24T16:19:31.743Z,5.25
2022-12-24T16:22:22.644Z,6.00
2022-12-24T16:24:52.559Z,5.10
2022-12-24T16:27:20.511Z,5.93
2022-12-24T16:29:48.305Z,7.05
2022-12-24T16:32:30.332Z,7.43
2022-12-24T16:34:58.986Z,9.82
2022-12-24T16:37:26.957Z,9.13
2022-12-24T16:39:54.909Z,8.65
2022-12-24T16:42:41.481Z,9.07
2022-12-24T16:45:10.516Z,9.20
2022-12-24T16:47:42.814Z,8.90
2022-12-24T16:50:16.541Z,9.18
2022-12-24T16:52:44.695Z,10.05
2022-12-24T16:55:15.753Z,10.02
2022-12-24T16:57:44.241Z,8.73
2022-12-24T17:00:21.182Z,8.10
2022-12-24T17:02:50.352Z,8.35
2022-12-24T17:05:18.882Z,8.55
2022-12-24T17:07:46.736Z,8.70
2022-12-24T17:10:15.019Z,8.43
2022-12-24T17:12:43.695Z,9.52
2022-12-24T17:15:11.683Z,11.88
2022-12-24T17:17:39.594Z,12.20
2022-12-24T17:20:08.374Z,12.75
2022-12-24T17:22:37.512Z,13.77
2022-12-24T17:25:06.677Z,13.95
2022-12-24T17:27:34.699Z,12.02
2022-12-24T17:30:02.614Z,10.80
2022-12-24T17:32:30.644Z,9.93
2022-12-24T17:35:00.053Z,10.10
2022-12-24T17:37:28.107Z,10.50
2022-12-24T17:39:56.112Z,10.98
2022-12-24T17:42:23.959Z,10.55
2022-12-24T17:44:51.963Z,12.10
2022-12-24T17:47:19.989Z,12.82
2022-12-24T17:49:48.242Z,12.25
2022-12-24T17:52:16.204Z,10.73
2022-12-24T17:54:44.296Z,11.32
2022-12-24T17:57:12.239Z,10.52
2022-12-24T17:59:40.287Z,10.68
2022-12-24T18:02:11.890Z,10.25
2022-12-24T18:04:40.036Z,11.23
2022-12-24T18:07:08.147Z,11.48
2022-12-24T18:09:35.990Z,13.35
2022-12-24T18:12:04.076Z,17.73
2022-12-24T18:14:31.913Z,14.35
2022-12-24T18:16:59.819Z,13.38
2022-12-24T18:19:27.850Z,12.13
2022-12-24T18:21:56.323Z,12.80
2022-12-24T18:24:24.292Z,12.75
2022-12-24T18:26:52.916Z,14.13
2022-12-24T18:29:20.890Z,14.95
2022-12-24T18:31:48.812Z,14.27
2022-12-24T18:34:16.836Z,14.57
2022-12-24T18:36:48.291Z,14.48
2022-12-24T18:39:19.287Z,14.88
2022-12-24T18:41:47.613Z,14.45
2022-12-24T18:44:19.492Z,15.02
2022-12-24T18:46:52.526Z,19.20
2022-12-24T18:49:20.570Z,21.33
2022-12-24T18:51:48.456Z,36.65
2022-12-24T18:54:16.306Z,23.98
2022-12-24T18:56:44.171Z,17.25
2022-12-24T18:59:12.142Z,18.45
2022-12-24T19:01:40.145Z,16.20
2022-12-24T19:04:08.296Z,16.50
2022-12-24T19:06:36.688Z,15.10
2022-12-24T19:09:04.859Z,16.98
2022-12-24T19:11:34.402Z,18.58
2022-12-24T19:14:04.948Z,24.52
2022-12-24T19:16:37.201Z,19.05
2022-12-24T19:19:07.741Z,18.90
2022-12-24T19:21:35.975Z,17.63
2022-12-24T19:24:04.329Z,15.38
2022-12-24T19:26:32.193Z,12.15
2022-12-24T19:29:00.098Z,14.10
2022-12-24T19:31:28.217Z,13.93
2022-12-24T19:33:56.996Z,13.93
2022-12-24T19:36:28.707Z,13.55
2022-12-24T19:38:58.118Z,15.65
2022-12-24T19:41:28.708Z,16.23
2022-12-24T19:43:59.606Z,18.25
2022-12-24T19:46:29.858Z,17.00
2022-12-24T19:49:00.239Z,15.68
2022-12-24T19:51:29.437Z,15.32
2022-12-24T19:53:59.629Z,15.30
2022-12-24T19:56:30.057Z,15.02
2022-12-24T19:58:59.079Z,14.07
2022-12-24T20:01:29.487Z,17.15
2022-12-24T20:03:57.992Z,15.93
2022-12-24T20:06:29.197Z,15.38
2022-12-24T20:09:06.583Z,15.98
2022-12-24T20:11:35.666Z,16.35
2022-12-24T20:14:05.474Z,18.50
2022-12-24T20:16:34.520Z,15.95
2022-12-24T20:19:05.643Z,17.02
2022-12-24T20:21:34.311Z,19.25
2022-12-24T20:24:02.313Z,18.98
2022-12-24T20:26:30.988Z,23.73
2022-12-24T20:28:58.945Z,24.92
2022-12-24T20:31:29.716Z,28.50
2022-12-24T20:33:59.150Z,23.45
2022-12-24T20:36:28.550Z,33.88
2022-12-24T20:38:57.403Z,31.55
2022-12-24T20:41:27.293Z,29.40
2022-12-24T20:43:57.018Z,22.83
2022-12-24T20:46:25.007Z,21.77
2022-12-24T20:48:53.134Z,20.92
2022-12-24T20:51:25.275Z,19.30
2022-12-24T20:53:59.447Z,19.77
2022-12-24T20:56:27.862Z,24.17
2022-12-24T20:58:55.872Z,29.95
2022-12-24T21:01:26.048Z,25.80
2022-12-24T21:03:55.718Z,22.20
2022-12-24T21:06:24.876Z,19.83
2022-12-24T21:08:54.012Z,17.08
2022-12-24T21:11:57.710Z,19.25
2022-12-24T21:14:27.562Z,18.08
2022-12-24T21:16:56.137Z,18.02
2022-12-24T21:19:25.504Z,17.30
2022-12-24T21:21:55.103Z,18.50
2022-12-24T21:24:23.035Z,19.40
2022-12-24T21:26:51.060Z,19.00
2022-12-24T21:29:18.964Z,20.48
2022-12-24T21:31:47.531Z,19.35
2022-12-24T21:34:15.467Z,21.42
2022-12-24T21:36:45.861Z,22.05
2022-12-24T21:39:14.180Z,20.20
2022-12-24T21:41:42.009Z,19.52
2022-12-24T21:44:09.854Z,19.55
2022-12-24T21:46:37.833Z,18.00
2022-12-24T21:49:24.334Z,18.23
2022-12-24T21:51:52.212Z,18.05
2022-12-24T21:54:32.093Z,18.33
2022-12-24T21:57:23.824Z,17.23
2022-12-24T21:59:53.582Z,18.17
2022-12-24T22:02:26.668Z,15.95
2022-12-24T22:04:54.849Z,16.42
2022-12-24T22:07:46.555Z,17.83
2022-12-24T22:10:33.793Z,17.45
2022-12-24T22:13:07.304Z,17.40
2022-12-24T22:15:36.917Z,18.13
2022-12-24T22:18:04.911Z,18.30
2022-12-24T22:20:34.161Z,19.30
2022-12-24T22:23:02.041Z,18.45
2022-12-24T22:25:31.695Z,17.33
2022-12-24T22:27:59.836Z,17.17
2022-12-24T22:30:28.443Z,16.55
2022-12-24T22:32:57.032Z,20.08
2022-12-24T22:35:25.158Z,18.95
2022-12-24T22:37:56.056Z,16.80
2022-12-24T22:40:28.163Z,17.95
2022-12-24T22:42:56.264Z,16.73
2022-12-24T22:45:24.188Z,15.98
2022-12-24T22:47:52.126Z,17.63
2022-12-24T22:50:20.172Z,16.45
2022-12-24T22:52:48.141Z,17.35
2022-12-24T22:55:16.168Z,16.30
2022-12-24T22:57:44.203Z,16.38
2022-12-24T23:00:33.569Z,16.40
2022-12-24T23:03:01.847Z,15.57
2022-12-24T23:05:30.305Z,15.80
2022-12-24T23:07:58.753Z,14.07
2022-12-24T23:10:26.779Z,14.20
2022-12-24T23:13:15.344Z,13.18
2022-12-24T23:15:43.490Z,12.80
2022-12-24T23:18:11.944Z,13.30
2022-12-24T23:20:42.998Z,11.00
2022-12-24T23:23:11.013Z,11.30
2022-12-24T23:25:38.941Z,11.50
2022-12-24T23:28:06.799Z,11.50
2022-12-24T23:30:34.786Z,10.55
2022-12-24T23:33:02.678Z,11.05
2022-12-24T23:35:30.537Z,11.57
2022-12-24T23:37:58.393Z,11.25
2022-12-24T23:40:26.395Z,11.35
2022-12-24T23:42:54.275Z,12.38
2022-12-24T23:45:22.238Z,10.98
2022-12-24T23:47:50.130Z,11.02
2022-12-24T23:50:18.119Z,11.32
2022-12-24T23:52:45.893Z,11.35
2022-12-24T23:55:13.694Z,10.50
2022-12-24T23:57:41.627Z,11.25
